• Join FlightAware (Why Join?)
  • Login
  • US Flag 
04:59PM EDT


 

Airport Tracker/Info


-or-


 

Live Flight TrackerFlight Track Log ✈ AWE3202 ✈ 05-May-2014 ✈ KDCA - KMHT

Flight Track Log - Related Links

Times and Time Zones

All times are in EDT time to prevent confusion due to time zone crossing. See the AWE3202 flight status page for this flight to view local times or setup timezone preferences in your user account.

Time Position Orientation Groundspeed Altitude Reporting Facility
EDT Latitude Longitude Course Direction KTS MPH feet Rate Location/Type
10:29PM 38.9000 -77.0833 311° West 202 232 2,500  Level Potomac TRACON
10:30PM 38.9333 -77.1333 311° West 222 255 5,400 3,180 Climbing Potomac TRACON
10:31PM 39.0114 -77.1731 338° Northwest 223 257 9,700 2,700 Climbing Washington Center
10:32PM 39.0461 -77.0669 67° East 195 224 11,900 2,100 Climbing Washington Center
10:33PM 39.0600 -76.9361 82° East 262 302 14,000 2,220 Climbing Washington Center
10:34PM 39.0761 -76.8028 81° East 322 371 16,400 1,980 Climbing Washington Center
10:35PM 39.0858 -76.6639 85° East 362 417 18,000 780 Climbing Washington Center
10:36PM 39.0786 -76.5142 94° East 383 441 18,000  Level Washington Center
10:37PM 39.0733 -76.3669 93° East 404 465 18,000  Level Washington Center
10:38PM 39.0681 -76.2200 93° East 404 465 18,000 420 Level Washington Center
10:39PM 39.0769 -76.0756 85° East 404 465 18,900 1,260 Climbing Washington Center
10:40PM 39.1442 -75.9664 52° Northeast 370 426 20,500 1,380 Climbing Washington Center
10:41PM 39.2236 -75.8594 46° Northeast 379 436 21,800 1,560 Climbing Washington Center
10:42PM 39.3072 -75.7497 45° Northeast 405 466 23,700 1,800 Climbing Washington Center
10:43PM 39.3906 -75.6372 46° Northeast 421 484 25,400 1,560 Climbing Washington Center
10:44PM 39.4761 -75.5217 46° Northeast 426 490 26,900 1,320 Climbing Washington Center
10:45PM 39.5614 -75.4058 46° Northeast 431 496 28,100 720 Climbing Washington Center
10:47PM 39.7047 -75.2122 46° Northeast 439 505 29,000 300 Climbing New York Center
10:48PM 39.7975 -75.0750 49° Northeast 444 511 29,000  Level New York Center
10:49PM 39.8808 -74.9558 48° Northeast 450 518 29,000  Level New York Center
10:50PM 39.9511 -74.8569 47° Northeast 457 526 29,000  Level New York Center
10:51PM 40.0450 -74.7269 47° Northeast 451 519 29,000  Level New York Center
10:52PM 40.1342 -74.6153 44° Northeast 451 519 29,000  Level New York Center
10:53PM 40.2442 -74.5697 18° North 427 491 29,000  Level New York Center
10:54PM 40.3556 -74.5378 12° North 405 466 29,000  Level New York Center
10:55PM 40.4672 -74.5056 12° North 405 466 29,000  Level New York Center
10:56PM 40.5828 -74.4708 13° North 410 472 29,000  Level New York Center
10:57PM 40.6944 -74.4358 13° North 415 478 29,000  Level New York Center
10:58PM 40.8058 -74.4008 13° North 415 478 29,000  Level New York Center
10:59PM 40.9172 -74.3683 12° North 415 478 29,000  Level New York Center
11:01PM 41.1881 -74.2869 13° North 412 474 29,000  Level Boston Center
11:02PM 41.3019 -74.2539 12° North 412 474 29,000  Level Boston Center
11:03PM 41.4128 -74.2192 13° North 412 474 29,000  Level Boston Center
11:04PM 41.5267 -74.1836 13° North 413 475 29,000  Level Boston Center
11:05PM 41.6394 -74.1494 13° North 414 476 29,000  Level Boston Center
11:06PM 41.7522 -74.1144 13° North 415 478 29,000  Level Boston Center
11:07PM 41.8753 -74.0767 13° North 414 476 29,000  Level Boston Center
11:08PM 41.9875 -74.0436 12° North 414 476 29,000  Level Boston Center
11:09PM 42.1003 -74.0061 14° North 414 476 29,000  Level Boston Center
11:10PM 42.1944 -73.9058 38° Northeast 440 506 29,000  Level Boston Center
11:11PM 42.2536 -73.7483 63° Northeast 469 540 29,000 -300 Level Boston Center
11:12PM 42.3206 -73.5725 63° Northeast 471 542 28,500 -1,080 Descending Boston Center
11:13PM 42.3733 -73.4325 63° Northeast 473 544 26,900 -1,740 Descending Boston Center
11:14PM 42.4303 -73.2800 63° Northeast 459 528 25,100 -1,920 Descending Boston Center
11:15PM 42.4775 -73.1261 67° East 446 513 23,200 -1,980 Descending Boston Center
11:16PM 42.5256 -72.9617 68° East 406 467 21,200 -1,860 Descending Boston Center
11:17PM 42.5681 -72.8150 68° East 417 480 19,500 -1,620 Descending Boston Center
11:18PM 42.6078 -72.6786 68° East 407 468 17,900 -1,680 Descending Boston Center
11:19PM 42.6472 -72.5411 69° East 394 453 16,200 -1,620 Descending Boston Center
11:20PM 42.6842 -72.4114 69° East 378 435 14,700 -1,680 Descending Boston Center
11:21PM 42.7275 -72.2622 68° East 370 426 12,900 -1,680 Descending Boston Center
11:22PM 42.7611 -72.1372 70° East 354 407 11,400 -1,320 Descending Boston Center
11:24PM 42.7886 -72.0253 71° East 315 362 10,200 -1,380 Descending Boston Center
11:24PM 42.7833 -71.9150 94° East 293 337 8,700 -1,260 Descending Boston Center
11:26PM 42.7783 -71.8006 93° East 287 330 7,700 -1,020 Descending Boston Center
11:27PM 42.7739 -71.7036 94° East 262 302 6,700 -900 Descending Boston Center
11:28PM 42.7700 -71.6164 93° East 236 272 5,900 -900 Descending Boston Center
11:29PM 42.7656 -71.5283 94° East 236 272 5,000 -1,020 Descending Boston Center
11:30PM 42.7756 -71.4450 81° East 225 259 3,900 -1,080 Descending Boston Center
11:31PM 42.8044 -71.3864 56° Northeast 183 211 2,800 -960 Descending Boston Center
11:32PM 42.8450 -71.3817 North 148 170 2,000 -780 Descending Boston Center
11:33PM 42.8758 -71.4008 336° Northwest 121 139 1,300 -660 Descending Boston Center
11:34PM 42.9064 -71.4189 337° Northwest 119 137 700 -480 Descending Boston Center
11:35PM 42.9333 -71.4361 335° Northwest 122 140 400 -300 Descending Boston Center